sensor_id;sensor_type;location;lat;lon;timestamp;P1;P2;P0
39955;PMS5003;25631;51.516;-0.470;2023-03-01T00:02:08;12;10;
39955;PMS5003;25631;51.516;-0.470;2023-03-01T00:04:44;13;11;
39955;PMS5003;25631;51.516;-0.470;2023-03-01T00:07:21;13;11;
39955;PMS5003;25631;51.516;-0.470;2023-03-01T00:09:57;12;11;
39955;PMS5003;25631;51.516;-0.470;2023-03-01T00:12:34;12;11;
39955;PMS5003;25631;51.516;-0.470;2023-03-01T00:15:11;12;11;
39955;PMS5003;25631;51.516;-0.470;2023-03-01T00:17:47;11;10;
39955;PMS5003;25631;51.516;-0.470;2023-03-01T00:20:24;11;10;
39955;PMS5003;25631;51.516;-0.470;2023-03-01T00:23:00;11;10;
39955;PMS5003;25631;51.516;-0.470;2023-03-01T00:25:40;11;9;
39955;PMS5003;25631;51.516;-0.470;2023-03-01T00:28:18;11;9;
39955;PMS5003;25631;51.516;-0.470;2023-03-01T00:30:55;11;9;
39955;PMS5003;25631;51.516;-0.470;2023-03-01T00:33:32;10;8;
39955;PMS5003;25631;51.516;-0.470;2023-03-01T00:36:09;10;8;
39955;PMS5003;25631;51.516;-0.470;2023-03-01T00:38:47;10;8;
39955;PMS5003;25631;51.516;-0.470;2023-03-01T00:41:24;9;8;
39955;PMS5003;25631;51.516;-0.470;2023-03-01T00:44:00;9;8;
39955;PMS5003;25631;51.516;-0.470;2023-03-01T00:46:37;9;8;
39955;PMS5003;25631;51.516;-0.470;2023-03-01T00:49:15;10;8;
39955;PMS5003;25631;51.516;-0.470;2023-03-01T00:51:52;10;8;
39955;PMS5003;25631;51.516;-0.470;2023-03-01T00:54:29;10;8;
39955;PMS5003;25631;51.516;-0.470;2023-03-01T00:57:06;10;7;
39955;PMS5003;25631;51.516;-0.470;2023-03-01T00:59:42;10;7;
39955;PMS5003;25631;51.516;-0.470;2023-03-01T01:02:19;10;7;
39955;PMS5003;25631;51.516;-0.470;2023-03-01T01:04:56;11;8;
39955;PMS5003;25631;51.516;-0.470;2023-03-01T01:07:33;11;8;
39955;PMS5003;25631;51.516;-0.470;2023-03-01T01:10:10;11;8;
39955;PMS5003;25631;51.516;-0.470;2023-03-01T01:12:47;9;7;
39955;PMS5003;25631;51.516;-0.470;2023-03-01T01:15:23;9;7;
39955;PMS5003;25631;51.516;-0.470;2023-03-01T01:18:00;9;7;
39955;PMS5003;25631;51.516;-0.470;2023-03-01T01:20:36;10;7;
39955;PMS5003;25631;51.516;-0.470;2023-03-01T01:23:13;10;7;
39955;PMS5003;25631;51.516;-0.470;2023-03-01T01:25:49;10;7;
39955;PMS5003;25631;51.516;-0.470;2023-03-01T01:28:26;11;7;
39955;PMS5003;25631;51.516;-0.470;2023-03-01T01:31:02;11;7;
39955;PMS5003;25631;51.516;-0.470;2023-03-01T01:33:39;11;7;
39955;PMS5003;25631;51.516;-0.470;2023-03-01T01:36:16;12;8;
39955;PMS5003;25631;51.516;-0.470;2023-03-01T01:38:53;12;8;
39955;PMS5003;25631;51.516;-0.470;2023-03-01T01:41:30;12;8;
39955;PMS5003;25631;51.516;-0.470;2023-03-01T01:44:10;12;8;
39955;PMS5003;25631;51.516;-0.470;2023-03-01T01:46:50;12;8;
39955;PMS5003;25631;51.516;-0.470;2023-03-01T01:49:32;12;8;
39955;PMS5003;25631;51.516;-0.470;2023-03-01T01:52:13;13;8;
39955;PMS5003;25631;51.516;-0.470;2023-03-01T01:54:54;13;8;
39955;PMS5003;25631;51.516;-0.470;2023-03-01T01:57:36;13;8;
39955;PMS5003;25631;51.516;-0.470;2023-03-01T02:00:17;12;8;
39955;PMS5003;25631;51.516;-0.470;2023-03-01T02:02:56;12;8;
39955;PMS5003;25631;51.516;-0.470;2023-03-01T02:05:37;12;8;
39955;PMS5003;25631;51.516;-0.470;2023-03-01T02:08:19;11;8;
39955;PMS5003;25631;51.516;-0.470;2023-03-01T02:10:58;11;8;
39955;PMS5003;25631;51.516;-0.470;2023-03-01T02:13:36;11;8;
39955;PMS5003;25631;51.516;-0.470;2023-03-01T02:16:14;11;8;
39955;PMS5003;25631;51.516;-0.470;2023-03-01T02:18:52;11;8;
39955;PMS5003;25631;51.516;-0.470;2023-03-01T02:21:31;11;8;
39955;PMS5003;25631;51.516;-0.470;2023-03-01T02:24:17;10;7;
39955;PMS5003;25631;51.516;-0.470;2023-03-01T02:27:02;10;7;
39955;PMS5003;25631;51.516;-0.470;2023-03-01T02:29:39;10;7;
39955;PMS5003;25631;51.516;-0.470;2023-03-01T02:32:16;10;7;
39955;PMS5003;25631;51.516;-0.470;2023-03-01T02:34:53;10;7;
39955;PMS5003;25631;51.516;-0.470;2023-03-01T02:37:31;10;7;
39955;PMS5003;25631;51.516;-0.470;2023-03-01T02:40:08;9;8;
39955;PMS5003;25631;51.516;-0.470;2023-03-01T02:42:49;9;8;
39955;PMS5003;25631;51.516;-0.470;2023-03-01T02:45:29;9;8;
39955;PMS5003;25631;51.516;-0.470;2023-03-01T02:48:05;11;9;
39955;PMS5003;25631;51.516;-0.470;2023-03-01T02:50:46;10;9;
39955;PMS5003;25631;51.516;-0.470;2023-03-01T02:53:39;10;9;
39955;PMS5003;25631;51.516;-0.470;2023-03-01T02:56:23;11;10;
39955;PMS5003;25631;51.516;-0.470;2023-03-01T02:59:00;13;11;
39955;PMS5003;25631;51.516;-0.470;2023-03-01T03:01:37;12;11;
39955;PMS5003;25631;51.516;-0.470;2023-03-01T03:04:15;13;12;
39955;PMS5003;25631;51.516;-0.470;2023-03-01T03:06:53;14;13;
39955;PMS5003;25631;51.516;-0.470;2023-03-01T03:09:30;15;13;
39955;PMS5003;25631;51.516;-0.470;2023-03-01T03:12:06;14;13;
39955;PMS5003;25631;51.516;-0.470;2023-03-01T03:14:43;13;12;
39955;PMS5003;25631;51.516;-0.470;2023-03-01T03:17:19;15;13;
39955;PMS5003;25631;51.516;-0.470;2023-03-01T03:19:56;14;13;
39955;PMS5003;25631;51.516;-0.470;2023-03-01T03:22:33;14;13;
39955;PMS5003;25631;51.516;-0.470;2023-03-01T03:25:09;14;13;
39955;PMS5003;25631;51.516;-0.470;2023-03-01T03:27:47;15;13;
39955;PMS5003;25631;51.516;-0.470;2023-03-01T03:30:25;15;13;
39955;PMS5003;25631;51.516;-0.470;2023-03-01T03:33:04;15;13;
39955;PMS5003;25631;51.516;-0.470;2023-03-01T03:35:42;13;12;
39955;PMS5003;25631;51.516;-0.470;2023-03-01T03:38:20;13;12;
39955;PMS5003;25631;51.516;-0.470;2023-03-01T03:41:00;13;12;
39955;PMS5003;25631;51.516;-0.470;2023-03-01T03:43:39;13;12;
39955;PMS5003;25631;51.516;-0.470;2023-03-01T03:46:16;13;12;
39955;PMS5003;25631;51.516;-0.470;2023-03-01T03:48:53;13;12;
39955;PMS5003;25631;51.516;-0.470;2023-03-01T03:51:29;12;11;
39955;PMS5003;25631;51.516;-0.470;2023-03-01T03:54:06;12;11;
39955;PMS5003;25631;51.516;-0.470;2023-03-01T03:56:42;12;11;
39955;PMS5003;25631;51.516;-0.470;2023-03-01T03:59:19;11;9;
39955;PMS5003;25631;51.516;-0.470;2023-03-01T04:01:55;11;9;
39955;PMS5003;25631;51.516;-0.470;2023-03-01T04:04:32;11;9;
39955;PMS5003;25631;51.516;-0.470;2023-03-01T04:07:09;9;8;
39955;PMS5003;25631;51.516;-0.470;2023-03-01T04:09:45;9;8;
39955;PMS5003;25631;51.516;-0.470;2023-03-01T04:12:22;9;8;
39955;PMS5003;25631;51.516;-0.470;2023-03-01T04:14:58;9;7;
39955;PMS5003;25631;51.516;-0.470;2023-03-01T04:17:35;10;8;
39955;PMS5003;25631;51.516;-0.470;2023-03-01T04:20:13;10;8;
39955;PMS5003;25631;51.516;-0.470;2023-03-01T04:22:53;10;8;
39955;PMS5003;25631;51.516;-0.470;2023-03-01T04:25:33;10;8;
39955;PMS5003;25631;51.516;-0.470;2023-03-01T04:28:10;10;8;
39955;PMS5003;25631;51.516;-0.470;2023-03-01T04:30:47;9;7;
39955;PMS5003;25631;51.516;-0.470;2023-03-01T04:33:24;9;7;
39955;PMS5003;25631;51.516;-0.470;2023-03-01T04:36:01;8;6;
39955;PMS5003;25631;51.516;-0.470;2023-03-01T04:38:38;7;6;
39955;PMS5003;25631;51.516;-0.470;2023-03-01T04:41:16;7;6;
39955;PMS5003;25631;51.516;-0.470;2023-03-01T04:43:54;8;7;
39955;PMS5003;25631;51.516;-0.470;2023-03-01T04:46:31;7;6;
39955;PMS5003;25631;51.516;-0.470;2023-03-01T04:49:12;7;6;
39955;PMS5003;25631;51.516;-0.470;2023-03-01T04:51:49;7;6;
39955;PMS5003;25631;51.516;-0.470;2023-03-01T04:54:25;5;5;
39955;PMS5003;25631;51.516;-0.470;2023-03-01T04:57:02;5;5;
39955;PMS5003;25631;51.516;-0.470;2023-03-01T04:59:39;5;5;
39955;PMS5003;25631;51.516;-0.470;2023-03-01T05:02:15;6;4;
39955;PMS5003;25631;51.516;-0.470;2023-03-01T05:04:52;6;4;
39955;PMS5003;25631;51.516;-0.470;2023-03-01T05:07:29;6;4;
39955;PMS5003;25631;51.516;-0.470;2023-03-01T05:10:06;6;5;
39955;PMS5003;25631;51.516;-0.470;2023-03-01T05:12:43;7;6;
39955;PMS5003;25631;51.516;-0.470;2023-03-01T05:15:20;7;6;
39955;PMS5003;25631;51.516;-0.470;2023-03-01T05:17:58;9;6;
39955;PMS5003;25631;51.516;-0.470;2023-03-01T05:20:35;8;5;
39955;PMS5003;25631;51.516;-0.470;2023-03-01T05:23:11;8;5;
39955;PMS5003;25631;51.516;-0.470;2023-03-01T05:25:48;8;5;
39955;PMS5003;25631;51.516;-0.470;2023-03-01T05:28:25;8;5;
39955;PMS5003;25631;51.516;-0.470;2023-03-01T05:31:02;8;5;
39955;PMS5003;25631;51.516;-0.470;2023-03-01T05:33:40;8;5;
39955;PMS5003;25631;51.516;-0.470;2023-03-01T05:36:16;8;5;
39955;PMS5003;25631;51.516;-0.470;2023-03-01T05:38:53;9;6;
39955;PMS5003;25631;51.516;-0.470;2023-03-01T05:41:30;8;6;
39955;PMS5003;25631;51.516;-0.470;2023-03-01T05:44:06;8;6;
39955;PMS5003;25631;51.516;-0.470;2023-03-01T05:46:43;8;6;
39955;PMS5003;25631;51.516;-0.470;2023-03-01T05:49:19;8;6;
39955;PMS5003;25631;51.516;-0.470;2023-03-01T05:51:56;8;6;
39955;PMS5003;25631;51.516;-0.470;2023-03-01T05:54:33;8;6;
39955;PMS5003;25631;51.516;-0.470;2023-03-01T05:57:09;8;6;
39955;PMS5003;25631;51.516;-0.470;2023-03-01T05:59:46;8;6;
39955;PMS5003;25631;51.516;-0.470;2023-03-01T06:02:23;8;6;
39955;PMS5003;25631;51.516;-0.470;2023-03-01T06:04:59;8;6;
39955;PMS5003;25631;51.516;-0.470;2023-03-01T06:07:36;8;6;
39955;PMS5003;25631;51.516;-0.470;2023-03-01T06:10:13;8;6;
39955;PMS5003;25631;51.516;-0.470;2023-03-01T06:12:50;10;6;
39955;PMS5003;25631;51.516;-0.470;2023-03-01T06:15:27;10;6;
39955;PMS5003;25631;51.516;-0.470;2023-03-01T06:18:03;10;6;
39955;PMS5003;25631;51.516;-0.470;2023-03-01T06:20:40;10;6;
39955;PMS5003;25631;51.516;-0.470;2023-03-01T06:23:17;10;6;
39955;PMS5003;25631;51.516;-0.470;2023-03-01T06:25:53;10;6;
39955;PMS5003;25631;51.516;-0.470;2023-03-01T06:28:30;9;6;
39955;PMS5003;25631;51.516;-0.470;2023-03-01T06:31:07;9;6;
39955;PMS5003;25631;51.516;-0.470;2023-03-01T06:33:43;9;6;
39955;PMS5003;25631;51.516;-0.470;2023-03-01T06:36:20;8;6;
39955;PMS5003;25631;51.516;-0.470;2023-03-01T06:39:01;8;6;
39955;PMS5003;25631;51.516;-0.470;2023-03-01T06:41:38;8;6;
39955;PMS5003;25631;51.516;-0.470;2023-03-01T06:44:14;8;6;
39955;PMS5003;25631;51.516;-0.470;2023-03-01T06:46:51;8;6;
39955;PMS5003;25631;51.516;-0.470;2023-03-01T06:49:28;8;6;
39955;PMS5003;25631;51.516;-0.470;2023-03-01T06:52:04;8;6;
39955;PMS5003;25631;51.516;-0.470;2023-03-01T06:54:40;8;6;
39955;PMS5003;25631;51.516;-0.470;2023-03-01T06:57:17;8;6;
39955;PMS5003;25631;51.516;-0.470;2023-03-01T06:59:54;8;6;
39955;PMS5003;25631;51.516;-0.470;2023-03-01T07:02:30;8;6;
39955;PMS5003;25631;51.516;-0.470;2023-03-01T07:05:07;8;6;
39955;PMS5003;25631;51.516;-0.470;2023-03-01T07:07:44;8;6;
39955;PMS5003;25631;51.516;-0.470;2023-03-01T07:10:20;8;6;
39955;PMS5003;25631;51.516;-0.470;2023-03-01T07:12:57;8;6;
39955;PMS5003;25631;51.516;-0.470;2023-03-01T07:15:34;9;7;
39955;PMS5003;25631;51.516;-0.470;2023-03-01T07:18:11;9;7;
39955;PMS5003;25631;51.516;-0.470;2023-03-01T07:20:47;9;7;
39955;PMS5003;25631;51.516;-0.470;2023-03-01T07:23:24;9;7;
39955;PMS5003;25631;51.516;-0.470;2023-03-01T07:26:00;9;7;
39955;PMS5003;25631;51.516;-0.470;2023-03-01T07:28:37;9;7;
39955;PMS5003;25631;51.516;-0.470;2023-03-01T07:31:14;8;8;
39955;PMS5003;25631;51.516;-0.470;2023-03-01T07:33:51;8;8;
39955;PMS5003;25631;51.516;-0.470;2023-03-01T07:36:28;8;8;
39955;PMS5003;25631;51.516;-0.470;2023-03-01T07:39:04;9;8;
39955;PMS5003;25631;51.516;-0.470;2023-03-01T07:41:41;9;8;
39955;PMS5003;25631;51.516;-0.470;2023-03-01T07:44:17;9;8;
39955;PMS5003;25631;51.516;-0.470;2023-03-01T07:46:54;10;10;
39955;PMS5003;25631;51.516;-0.470;2023-03-01T07:49:31;10;10;
39955;PMS5003;25631;51.516;-0.470;2023-03-01T07:52:09;10;10;
39955;PMS5003;25631;51.516;-0.470;2023-03-01T07:54:46;9;9;
39955;PMS5003;25631;51.516;-0.470;2023-03-01T07:57:22;9;9;
39955;PMS5003;25631;51.516;-0.470;2023-03-01T07:59:59;9;9;
39955;PMS5003;25631;51.516;-0.470;2023-03-01T08:02:36;9;9;
39955;PMS5003;25631;51.516;-0.470;2023-03-01T08:05:12;9;9;
39955;PMS5003;25631;51.516;-0.470;2023-03-01T08:07:49;9;9;
39955;PMS5003;25631;51.516;-0.470;2023-03-01T08:10:25;10;9;
39955;PMS5003;25631;51.516;-0.470;2023-03-01T08:13:02;10;9;
39955;PMS5003;25631;51.516;-0.470;2023-03-01T08:15:39;10;9;
39955;PMS5003;25631;51.516;-0.470;2023-03-01T08:18:15;13;9;
39955;PMS5003;25631;51.516;-0.470;2023-03-01T08:20:52;13;9;
39955;PMS5003;25631;51.516;-0.470;2023-03-01T08:23:29;13;9;
39955;PMS5003;25631;51.516;-0.470;2023-03-01T08:26:07;14;9;
39955;PMS5003;25631;51.516;-0.470;2023-03-01T08:28:45;14;9;
39955;PMS5003;25631;51.516;-0.470;2023-03-01T08:31:24;14;9;
39955;PMS5003;25631;51.516;-0.470;2023-03-01T08:34:05;13;8;
39955;PMS5003;25631;51.516;-0.470;2023-03-01T08:36:44;13;8;
39955;PMS5003;25631;51.516;-0.470;2023-03-01T08:39:22;13;8;
39955;PMS5003;25631;51.516;-0.470;2023-03-01T08:41:58;12;8;
39955;PMS5003;25631;51.516;-0.470;2023-03-01T08:44:35;12;8;
39955;PMS5003;25631;51.516;-0.470;2023-03-01T08:47:11;12;8;
39955;PMS5003;25631;51.516;-0.470;2023-03-01T08:49:48;12;8;
39955;PMS5003;25631;51.516;-0.470;2023-03-01T08:52:26;12;8;
39955;PMS5003;25631;51.516;-0.470;2023-03-01T08:55:03;12;8;
39955;PMS5003;25631;51.516;-0.470;2023-03-01T08:57:40;12;8;
39955;PMS5003;25631;51.516;-0.470;2023-03-01T09:00:17;12;8;
39955;PMS5003;25631;51.516;-0.470;2023-03-01T09:02:54;12;8;
39955;PMS5003;25631;51.516;-0.470;2023-03-01T09:05:31;12;7;
39955;PMS5003;25631;51.516;-0.470;2023-03-01T09:08:07;12;7;
39955;PMS5003;25631;51.516;-0.470;2023-03-01T09:10:44;12;7;
39955;PMS5003;25631;51.516;-0.470;2023-03-01T09:13:21;13;9;
39955;PMS5003;25631;51.516;-0.470;2023-03-01T09:15:58;13;9;
39955;PMS5003;25631;51.516;-0.470;2023-03-01T09:18:36;13;9;
39955;PMS5003;25631;51.516;-0.470;2023-03-01T09:21:14;13;9;
39955;PMS5003;25631;51.516;-0.470;2023-03-01T09:23:52;13;9;
39955;PMS5003;25631;51.516;-0.470;2023-03-01T09:26:29;13;9;
39955;PMS5003;25631;51.516;-0.470;2023-03-01T09:29:05;14;9;
39955;PMS5003;25631;51.516;-0.470;2023-03-01T09:31:42;14;9;
39955;PMS5003;25631;51.516;-0.470;2023-03-01T09:34:19;14;9;
39955;PMS5003;25631;51.516;-0.470;2023-03-01T09:36:57;12;10;
39955;PMS5003;25631;51.516;-0.470;2023-03-01T09:39:33;12;10;
39955;PMS5003;25631;51.516;-0.470;2023-03-01T09:42:11;12;10;
39955;PMS5003;25631;51.516;-0.470;2023-03-01T09:44:49;12;10;
39955;PMS5003;25631;51.516;-0.470;2023-03-01T09:47:30;12;10;
39955;PMS5003;25631;51.516;-0.470;2023-03-01T09:50:11;12;10;
39955;PMS5003;25631;51.516;-0.470;2023-03-01T09:52:50;13;12;
39955;PMS5003;25631;51.516;-0.470;2023-03-01T09:55:38;13;12;
39955;PMS5003;25631;51.516;-0.470;2023-03-01T09:58:25;13;12;
39955;PMS5003;25631;51.516;-0.470;2023-03-01T10:01:16;14;12;
39955;PMS5003;25631;51.516;-0.470;2023-03-01T10:04:05;14;12;
39955;PMS5003;25631;51.516;-0.470;2023-03-01T10:07:00;14;12;
39955;PMS5003;25631;51.516;-0.470;2023-03-01T10:09:57;14;11;
39955;PMS5003;25631;51.516;-0.470;2023-03-01T10:12:35;14;11;
39955;PMS5003;25631;51.516;-0.470;2023-03-01T10:15:16;14;11;
39955;PMS5003;25631;51.516;-0.470;2023-03-01T10:17:59;15;11;
39955;PMS5003;25631;51.516;-0.470;2023-03-01T10:20:42;15;11;
39955;PMS5003;25631;51.516;-0.470;2023-03-01T10:23:24;15;11;
39955;PMS5003;25631;51.516;-0.470;2023-03-01T10:26:07;14;10;
39955;PMS5003;25631;51.516;-0.470;2023-03-01T10:28:56;14;10;
39955;PMS5003;25631;51.516;-0.470;2023-03-01T10:31:39;14;10;
39955;PMS5003;25631;51.516;-0.470;2023-03-01T10:34:19;13;9;
39955;PMS5003;25631;51.516;-0.470;2023-03-01T10:36:57;13;9;
39955;PMS5003;25631;51.516;-0.470;2023-03-01T10:40:01;13;9;
39955;PMS5003;25631;51.516;-0.470;2023-03-01T10:42:45;13;9;
39955;PMS5003;25631;51.516;-0.470;2023-03-01T10:45:30;13;9;
39955;PMS5003;25631;51.516;-0.470;2023-03-01T10:48:11;13;9;
39955;PMS5003;25631;51.516;-0.470;2023-03-01T10:50:51;13;8;
39955;PMS5003;25631;51.516;-0.470;2023-03-01T10:53:42;13;8;
39955;PMS5003;25631;51.516;-0.470;2023-03-01T10:56:23;13;8;
39955;PMS5003;25631;51.516;-0.470;2023-03-01T10:59:00;12;7;
39955;PMS5003;25631;51.516;-0.470;2023-03-01T11:01:39;12;7;
39955;PMS5003;25631;51.516;-0.470;2023-03-01T11:04:16;12;7;
39955;PMS5003;25631;51.516;-0.470;2023-03-01T11:06:57;14;7;
39955;PMS5003;25631;51.516;-0.470;2023-03-01T11:09:35;14;7;
39955;PMS5003;25631;51.516;-0.470;2023-03-01T11:12:13;14;7;
39955;PMS5003;25631;51.516;-0.470;2023-03-01T11:14:52;13;6;
39955;PMS5003;25631;51.516;-0.470;2023-03-01T11:17:30;13;6;
39955;PMS5003;25631;51.516;-0.470;2023-03-01T11:20:13;13;6;
39955;PMS5003;25631;51.516;-0.470;2023-03-01T11:22:57;13;7;
39955;PMS5003;25631;51.516;-0.470;2023-03-01T11:25:39;13;7;
39955;PMS5003;25631;51.516;-0.470;2023-03-01T11:28:18;13;7;
39955;PMS5003;25631;51.516;-0.470;2023-03-01T11:30:57;12;7;
39955;PMS5003;25631;51.516;-0.470;2023-03-01T11:33:40;12;7;
39955;PMS5003;25631;51.516;-0.470;2023-03-01T11:36:25;12;7;
39955;PMS5003;25631;51.516;-0.470;2023-03-01T11:39:12;12;7;
39955;PMS5003;25631;51.516;-0.470;2023-03-01T11:42:00;12;7;
39955;PMS5003;25631;51.516;-0.470;2023-03-01T11:44:41;12;7;
39955;PMS5003;25631;51.516;-0.470;2023-03-01T11:47:25;12;7;
39955;PMS5003;25631;51.516;-0.470;2023-03-01T11:50:16;12;7;
39955;PMS5003;25631;51.516;-0.470;2023-03-01T11:53:05;12;7;
39955;PMS5003;25631;51.516;-0.470;2023-03-01T11:56:03;12;7;
39955;PMS5003;25631;51.516;-0.470;2023-03-01T11:58:53;12;7;
39955;PMS5003;25631;51.516;-0.470;2023-03-01T12:01:47;12;7;
39955;PMS5003;25631;51.516;-0.470;2023-03-01T12:04:46;12;8;
39955;PMS5003;25631;51.516;-0.470;2023-03-01T12:07:37;12;8;
39955;PMS5003;25631;51.516;-0.470;2023-03-01T12:10:22;12;8;
39955;PMS5003;25631;51.516;-0.470;2023-03-01T12:13:06;14;8;
39955;PMS5003;25631;51.516;-0.470;2023-03-01T12:16:09;14;8;
39955;PMS5003;25631;51.516;-0.470;2023-03-01T12:19:05;14;8;
39955;PMS5003;25631;51.516;-0.470;2023-03-01T12:21:57;15;8;
39955;PMS5003;25631;51.516;-0.470;2023-03-01T12:24:48;15;8;
39955;PMS5003;25631;51.516;-0.470;2023-03-01T12:27:42;15;8;
39955;PMS5003;25631;51.516;-0.470;2023-03-01T12:30:36;14;7;
39955;PMS5003;25631;51.516;-0.470;2023-03-01T12:33:22;14;7;
39955;PMS5003;25631;51.516;-0.470;2023-03-01T12:36:11;14;7;
39955;PMS5003;25631;51.516;-0.470;2023-03-01T12:39:03;14;7;
39955;PMS5003;25631;51.516;-0.470;2023-03-01T12:41:55;14;7;
39955;PMS5003;25631;51.516;-0.470;2023-03-01T12:44:45;14;7;
39955;PMS5003;25631;51.516;-0.470;2023-03-01T12:47:38;14;7;
39955;PMS5003;25631;51.516;-0.470;2023-03-01T12:50:37;14;7;
39955;PMS5003;25631;51.516;-0.470;2023-03-01T12:53:21;14;7;
39955;PMS5003;25631;51.516;-0.470;2023-03-01T12:56:00;14;7;
39955;PMS5003;25631;51.516;-0.470;2023-03-01T12:58:41;14;7;
39955;PMS5003;25631;51.516;-0.470;2023-03-01T13:01:31;14;7;
39955;PMS5003;25631;51.516;-0.470;2023-03-01T13:04:18;12;6;
39955;PMS5003;25631;51.516;-0.470;2023-03-01T13:07:23;12;6;
39955;PMS5003;25631;51.516;-0.470;2023-03-01T13:10:08;12;6;
39955;PMS5003;25631;51.516;-0.470;2023-03-01T13:13:01;12;6;
39955;PMS5003;25631;51.516;-0.470;2023-03-01T13:15:47;12;6;
39955;PMS5003;25631;51.516;-0.470;2023-03-01T13:18:29;12;6;
39955;PMS5003;25631;51.516;-0.470;2023-03-01T13:21:07;13;6;
39955;PMS5003;25631;51.516;-0.470;2023-03-01T13:23:44;13;6;
39955;PMS5003;25631;51.516;-0.470;2023-03-01T13:26:24;13;6;
39955;PMS5003;25631;51.516;-0.470;2023-03-01T13:29:00;14;7;
39955;PMS5003;25631;51.516;-0.470;2023-03-01T13:32:06;14;7;
39955;PMS5003;25631;51.516;-0.470;2023-03-01T13:34:56;12;6;
39955;PMS5003;25631;51.516;-0.470;2023-03-01T13:37:34;12;6;
39955;PMS5003;25631;51.516;-0.470;2023-03-01T13:41:47;12;6;
39955;PMS5003;25631;51.516;-0.470;2023-03-01T13:44:26;11;7;
39955;PMS5003;25631;51.516;-0.470;2023-03-01T13:47:13;11;7;
39955;PMS5003;25631;51.516;-0.470;2023-03-01T13:49:53;11;7;
39955;PMS5003;25631;51.516;-0.470;2023-03-01T13:52:37;9;7;
39955;PMS5003;25631;51.516;-0.470;2023-03-01T13:55:18;9;7;
39955;PMS5003;25631;51.516;-0.470;2023-03-01T13:58:00;9;7;
39955;PMS5003;25631;51.516;-0.470;2023-03-01T14:00:40;9;7;
39955;PMS5003;25631;51.516;-0.470;2023-03-01T14:03:18;9;7;
39955;PMS5003;25631;51.516;-0.470;2023-03-01T14:06:04;9;7;
39955;PMS5003;25631;51.516;-0.470;2023-03-01T14:08:43;10;8;
39955;PMS5003;25631;51.516;-0.470;2023-03-01T14:11:57;10;8;
39955;PMS5003;25631;51.516;-0.470;2023-03-01T14:14:44;10;8;
39955;PMS5003;25631;51.516;-0.470;2023-03-01T14:17:34;12;8;
39955;PMS5003;25631;51.516;-0.470;2023-03-01T14:20:28;12;8;
39955;PMS5003;25631;51.516;-0.470;2023-03-01T14:23:10;12;8;
39955;PMS5003;25631;51.516;-0.470;2023-03-01T14:25:50;13;9;
39955;PMS5003;25631;51.516;-0.470;2023-03-01T14:28:29;13;9;
39955;PMS5003;25631;51.516;-0.470;2023-03-01T14:31:40;13;9;
39955;PMS5003;25631;51.516;-0.470;2023-03-01T14:34:18;13;9;
39955;PMS5003;25631;51.516;-0.470;2023-03-01T14:36:56;13;9;
39955;PMS5003;25631;51.516;-0.470;2023-03-01T14:39:45;13;9;
39955;PMS5003;25631;51.516;-0.470;2023-03-01T14:42:22;11;8;
39955;PMS5003;25631;51.516;-0.470;2023-03-01T14:45:02;11;8;
39955;PMS5003;25631;51.516;-0.470;2023-03-01T14:47:40;11;8;
39955;PMS5003;25631;51.516;-0.470;2023-03-01T14:50:20;11;8;
39955;PMS5003;25631;51.516;-0.470;2023-03-01T14:53:01;11;8;
39955;PMS5003;25631;51.516;-0.470;2023-03-01T14:55:41;11;8;
39955;PMS5003;25631;51.516;-0.470;2023-03-01T14:58:21;11;8;
39955;PMS5003;25631;51.516;-0.470;2023-03-01T15:01:00;11;8;
39955;PMS5003;25631;51.516;-0.470;2023-03-01T15:03:40;11;8;
39955;PMS5003;25631;51.516;-0.470;2023-03-01T15:06:19;9;6;
39955;PMS5003;25631;51.516;-0.470;2023-03-01T15:08:58;9;6;
39955;PMS5003;25631;51.516;-0.470;2023-03-01T15:11:34;9;6;
39955;PMS5003;25631;51.516;-0.470;2023-03-01T15:14:28;9;6;
39955;PMS5003;25631;51.516;-0.470;2023-03-01T15:17:20;9;6;
39955;PMS5003;25631;51.516;-0.470;2023-03-01T15:20:03;9;6;
39955;PMS5003;25631;51.516;-0.470;2023-03-01T15:22:43;11;7;
39955;PMS5003;25631;51.516;-0.470;2023-03-01T15:25:21;11;7;
39955;PMS5003;25631;51.516;-0.470;2023-03-01T15:28:00;11;7;
39955;PMS5003;25631;51.516;-0.470;2023-03-01T15:30:38;12;9;
39955;PMS5003;25631;51.516;-0.470;2023-03-01T15:33:17;12;9;
39955;PMS5003;25631;51.516;-0.470;2023-03-01T15:36:04;12;9;
39955;PMS5003;25631;51.516;-0.470;2023-03-01T15:39:30;10;8;
39955;PMS5003;25631;51.516;-0.470;2023-03-01T15:42:12;11;8;
39955;PMS5003;25631;51.516;-0.470;2023-03-01T15:44:49;12;9;
39955;PMS5003;25631;51.516;-0.470;2023-03-01T15:47:26;12;10;
39955;PMS5003;25631;51.516;-0.470;2023-03-01T15:50:11;15;11;
39955;PMS5003;25631;51.516;-0.470;2023-03-01T15:52:55;15;12;
39955;PMS5003;25631;51.516;-0.470;2023-03-01T15:55:33;16;13;
39955;PMS5003;25631;51.516;-0.470;2023-03-01T15:58:12;17;14;
39955;PMS5003;25631;51.516;-0.470;2023-03-01T16:00:51;21;16;
39955;PMS5003;25631;51.516;-0.470;2023-03-01T16:03:28;20;16;
39955;PMS5003;25631;51.516;-0.470;2023-03-01T16:06:05;20;17;
39955;PMS5003;25631;51.516;-0.470;2023-03-01T16:08:42;20;17;
39955;PMS5003;25631;51.516;-0.470;2023-03-01T16:11:19;20;16;
39955;PMS5003;25631;51.516;-0.470;2023-03-01T16:13:57;20;16;
39955;PMS5003;25631;51.516;-0.470;2023-03-01T16:16:33;20;16;
39955;PMS5003;25631;51.516;-0.470;2023-03-01T16:19:15;19;15;
39955;PMS5003;25631;51.516;-0.470;2023-03-01T16:21:52;19;15;
39955;PMS5003;25631;51.516;-0.470;2023-03-01T16:24:29;19;15;
39955;PMS5003;25631;51.516;-0.470;2023-03-01T16:27:06;17;14;
39955;PMS5003;25631;51.516;-0.470;2023-03-01T16:29:42;17;14;
39955;PMS5003;25631;51.516;-0.470;2023-03-01T16:32:19;17;14;
39955;PMS5003;25631;51.516;-0.470;2023-03-01T16:34:55;17;14;
39955;PMS5003;25631;51.516;-0.470;2023-03-01T16:37:32;17;14;
39955;PMS5003;25631;51.516;-0.470;2023-03-01T16:40:15;17;14;
39955;PMS5003;25631;51.516;-0.470;2023-03-01T16:42:54;16;13;
39955;PMS5003;25631;51.516;-0.470;2023-03-01T16:45:32;16;13;
39955;PMS5003;25631;51.516;-0.470;2023-03-01T16:48:10;16;13;
39955;PMS5003;25631;51.516;-0.470;2023-03-01T16:50:55;16;12;
39955;PMS5003;25631;51.516;-0.470;2023-03-01T16:53:33;16;12;
39955;PMS5003;25631;51.516;-0.470;2023-03-01T16:56:11;16;12;
39955;PMS5003;25631;51.516;-0.470;2023-03-01T16:58:48;12;10;
39955;PMS5003;25631;51.516;-0.470;2023-03-01T17:01:24;12;10;
39955;PMS5003;25631;51.516;-0.470;2023-03-01T17:04:01;11;9;
39955;PMS5003;25631;51.516;-0.470;2023-03-01T17:06:38;10;8;
39955;PMS5003;25631;51.516;-0.470;2023-03-01T17:09:15;10;8;
39955;PMS5003;25631;51.516;-0.470;2023-03-01T17:11:52;11;9;
39955;PMS5003;25631;51.516;-0.470;2023-03-01T17:14:29;13;9;
39955;PMS5003;25631;51.516;-0.470;2023-03-01T17:17:05;13;9;
39955;PMS5003;25631;51.516;-0.470;2023-03-01T17:19:42;13;9;
39955;PMS5003;25631;51.516;-0.470;2023-03-01T17:22:19;13;9;
39955;PMS5003;25631;51.516;-0.470;2023-03-01T17:24:55;13;9;
39955;PMS5003;25631;51.516;-0.470;2023-03-01T17:27:32;13;9;
39955;PMS5003;25631;51.516;-0.470;2023-03-01T17:30:10;12;8;
39955;PMS5003;25631;51.516;-0.470;2023-03-01T17:32:48;12;8;
39955;PMS5003;25631;51.516;-0.470;2023-03-01T17:35:25;12;8;
39955;PMS5003;25631;51.516;-0.470;2023-03-01T17:38:01;11;7;
39955;PMS5003;25631;51.516;-0.470;2023-03-01T17:40:38;11;7;
39955;PMS5003;25631;51.516;-0.470;2023-03-01T17:43:15;11;7;
39955;PMS5003;25631;51.516;-0.470;2023-03-01T17:45:52;10;7;